createdAt,value
2019-05-26T03:13:52.874Z,76.10
2019-05-26T03:16:24.521Z,76.20
2019-05-26T03:18:56.121Z,76.20
2019-05-26T03:21:29.249Z,76.10
2019-05-26T03:24:00.835Z,76.00
2019-05-26T03:26:32.438Z,76.10
2019-05-26T03:29:04.015Z,75.80
2019-05-26T03:31:35.602Z,75.80
2019-05-26T03:34:07.071Z,75.40
2019-05-26T03:36:38.683Z,75.50
2019-05-26T03:39:10.428Z,75.60
2019-05-26T03:41:42.200Z,75.60
2019-05-26T03:44:13.763Z,75.50
2019-05-26T03:46:45.193Z,75.40
2019-05-26T03:49:16.680Z,75.20
2019-05-26T03:51:48.481Z,75.20
2019-05-26T03:54:20.073Z,75.30
2019-05-26T03:56:51.563Z,75.20
2019-05-26T03:59:22.971Z,74.70
2019-05-26T04:01:57.505Z,74.80
2019-05-26T04:04:27.385Z,74.60
2019-05-26T04:06:58.844Z,74.20
2019-05-26T04:09:30.045Z,74.20
2019-05-26T04:12:01.551Z,74.10
2019-05-26T04:14:33.107Z,73.90
2019-05-26T04:17:05.090Z,73.60
2019-05-26T04:19:36.703Z,73.60
2019-05-26T04:22:08.317Z,73.20
2019-05-26T04:24:40.028Z,72.60
2019-05-26T04:27:11.608Z,72.50
2019-05-26T04:29:43.109Z,72.50
2019-05-26T04:32:14.613Z,72.40
2019-05-26T04:34:46.405Z,72.30
2019-05-26T04:37:18.289Z,72.10
2019-05-26T04:39:49.905Z,72.10
2019-05-26T04:42:21.752Z,71.40
2019-05-26T04:44:53.429Z,70.80
2019-05-26T04:47:25.115Z,71.40
2019-05-26T04:49:56.501Z,71.20
2019-05-26T04:52:28.112Z,71.20
2019-05-26T04:54:59.934Z,70.80
2019-05-26T04:57:32.265Z,70.70
2019-05-26T05:00:03.696Z,71.10
2019-05-26T05:02:35.277Z,70.80
2019-05-26T05:05:09.173Z,71.00
2019-05-26T05:07:40.682Z,71.30
2019-05-26T05:10:12.197Z,71.30
2019-05-26T05:12:43.675Z,71.30
2019-05-26T05:15:15.469Z,71.10
2019-05-26T05:17:47.379Z,70.90
2019-05-26T05:20:18.950Z,70.60
2019-05-26T05:22:50.565Z,70.80
2019-05-26T05:25:22.096Z,70.60
2019-05-26T05:27:53.631Z,70.10
2019-05-26T05:30:25.258Z,69.80
2019-05-26T05:32:56.668Z,69.50
2019-05-26T05:35:28.283Z,69.10
2019-05-26T05:38:00.436Z,68.90
2019-05-26T05:40:30.669Z,69.00
2019-05-26T05:43:02.182Z,68.60
2019-05-26T05:45:33.753Z,68.90
2019-05-26T05:48:05.812Z,69.10
2019-05-26T05:50:39.088Z,68.90
2019-05-26T05:53:09.213Z,67.10
2019-05-26T05:55:40.807Z,68.10
2019-05-26T05:58:12.466Z,68.00
2019-05-26T06:00:43.981Z,68.20
2019-05-26T06:03:18.448Z,68.00
2019-05-26T06:05:48.318Z,67.90
2019-05-26T06:08:20.144Z,67.50
2019-05-26T06:10:51.623Z,67.40
2019-05-26T06:13:23.051Z,67.50
2019-05-26T06:15:54.750Z,67.30
2019-05-26T06:18:26.279Z,67.70
2019-05-26T06:20:58.984Z,67.50
2019-05-26T06:23:30.417Z,67.60
2019-05-26T06:26:01.987Z,67.80
2019-05-26T06:28:33.439Z,67.50
2019-05-26T06:31:05.045Z,67.50
2019-05-26T06:33:36.644Z,67.50
2019-05-26T06:36:08.069Z,67.40
2019-05-26T06:38:39.548Z,67.10
2019-05-26T06:41:10.937Z,66.80
2019-05-26T06:43:42.673Z,66.90
2019-05-26T06:46:14.233Z,66.60
2019-05-26T06:48:45.847Z,66.50
2019-05-26T06:51:17.308Z,66.50
2019-05-26T06:53:48.873Z,66.50
2019-05-26T06:56:20.263Z,66.90
2019-05-26T06:58:51.785Z,67.00
2019-05-26T07:01:23.287Z,67.00
2019-05-26T07:03:54.830Z,66.80
2019-05-26T07:06:26.306Z,66.70
2019-05-26T07:08:57.917Z,66.60
2019-05-26T07:11:29.469Z,66.50
2019-05-26T07:14:01.034Z,66.30
2019-05-26T07:16:37.993Z,66.30
2019-05-26T07:19:06.078Z,66.00
2019-05-26T07:21:38.211Z,65.60
2019-05-26T07:24:09.901Z,65.20
2019-05-26T07:26:41.461Z,65.40
2019-05-26T07:29:12.989Z,65.00
2019-05-26T07:31:44.800Z,65.10
2019-05-26T07:34:16.149Z,65.10
2019-05-26T07:36:47.682Z,64.90
2019-05-26T07:39:19.277Z,65.30
2019-05-26T07:42:08.824Z,66.10
2019-05-26T07:44:23.750Z,65.30
2019-05-26T07:46:55.194Z,65.40
2019-05-26T07:49:26.564Z,65.10
2019-05-26T07:51:57.966Z,65.00
2019-05-26T07:54:29.430Z,64.90
2019-05-26T07:57:01.009Z,65.00
2019-05-26T07:59:32.571Z,64.90
2019-05-26T08:02:04.154Z,64.60
2019-05-26T08:04:35.740Z,64.40
2019-05-26T08:07:07.224Z,64.30
2019-05-26T08:09:38.920Z,64.60
2019-05-26T08:12:24.989Z,64.60
2019-05-26T08:14:43.344Z,64.80
2019-05-26T08:17:14.733Z,64.00
2019-05-26T08:19:46.283Z,64.10
2019-05-26T08:22:17.688Z,64.50
2019-05-26T08:24:49.194Z,63.70
2019-05-26T08:27:20.670Z,63.40
2019-05-26T08:29:52.152Z,63.00
2019-05-26T08:32:23.742Z,63.20
2019-05-26T08:34:55.483Z,63.10
2019-05-26T08:37:27.008Z,62.90
2019-05-26T08:39:59.425Z,63.00
2019-05-26T08:42:43.739Z,62.20
2019-05-26T08:45:03.631Z,62.90
2019-05-26T08:47:35.368Z,63.00
2019-05-26T08:50:08.717Z,63.10
2019-05-26T08:52:40.627Z,63.30
2019-05-26T08:55:12.114Z,63.60
2019-05-26T08:57:43.584Z,63.70
2019-05-26T09:00:15.229Z,63.80
2019-05-26T09:02:46.771Z,64.00
2019-05-26T09:05:18.250Z,64.00
2019-05-26T09:07:50.256Z,64.00
2019-05-26T09:10:21.784Z,64.20
2019-05-26T09:13:00.948Z,64.20
2019-05-26T09:15:26.001Z,64.50
2019-05-26T09:17:57.459Z,64.50
2019-05-26T09:20:29.229Z,64.70
2019-05-26T09:23:01.173Z,64.60
2019-05-26T09:25:31.528Z,64.60
2019-05-26T09:28:03.394Z,64.20
2019-05-26T09:30:34.835Z,64.80
2019-05-26T09:33:06.250Z,64.80
2019-05-26T09:35:37.881Z,64.80
2019-05-26T09:38:09.498Z,64.80
2019-05-26T09:40:41.217Z,64.90
2019-05-26T09:43:16.022Z,64.90
2019-05-26T09:45:45.502Z,65.00
2019-05-26T09:48:17.248Z,65.00
2019-05-26T09:50:49.015Z,65.10
2019-05-26T09:53:21.200Z,65.10
2019-05-26T09:55:52.964Z,65.30
2019-05-26T09:58:24.510Z,65.30
2019-05-26T10:00:56.212Z,65.20
2019-05-26T10:03:29.065Z,65.30
2019-05-26T10:06:00.719Z,65.20
2019-05-26T10:08:32.226Z,65.30
2019-05-26T10:11:03.826Z,65.00
2019-05-26T10:13:35.301Z,65.30
2019-05-26T10:16:07.135Z,65.30
2019-05-26T10:18:38.689Z,65.30
2019-05-26T10:21:10.199Z,65.50
2019-05-26T10:23:42.485Z,65.40
2019-05-26T10:26:13.905Z,65.40
2019-05-26T10:28:45.477Z,65.40
2019-05-26T10:31:17.406Z,65.60
2019-05-26T10:33:49.009Z,65.60
2019-05-26T10:36:20.675Z,65.70
2019-05-26T10:38:52.388Z,65.80
2019-05-26T10:41:23.820Z,65.80
2019-05-26T10:43:55.164Z,66.00
2019-05-26T10:46:26.655Z,65.90
2019-05-26T10:48:58.080Z,66.00
2019-05-26T10:51:29.842Z,66.10
2019-05-26T10:54:01.181Z,66.30
2019-05-26T10:56:32.749Z,66.50
2019-05-26T10:59:04.326Z,66.60
2019-05-26T11:01:35.726Z,66.70
2019-05-26T11:04:07.439Z,66.60
2019-05-26T11:06:39.014Z,66.70
2019-05-26T11:09:11.188Z,66.70
2019-05-26T11:11:42.681Z,66.80
2019-05-26T11:14:14.218Z,66.90
2019-05-26T11:16:45.885Z,67.00
2019-05-26T11:19:17.424Z,67.10
2019-05-26T11:21:49.050Z,67.30
2019-05-26T11:24:20.846Z,67.20
2019-05-26T11:26:52.307Z,67.20
2019-05-26T11:29:23.902Z,67.20
2019-05-26T11:31:55.348Z,67.30
2019-05-26T11:34:26.761Z,67.40
2019-05-26T11:36:58.323Z,67.50
2019-05-26T11:39:29.890Z,67.50
2019-05-26T11:42:12.859Z,67.50
2019-05-26T11:44:34.151Z,67.70
2019-05-26T11:47:05.578Z,67.60
2019-05-26T11:49:37.254Z,67.80
2019-05-26T11:52:09.002Z,67.80
2019-05-26T11:54:40.531Z,67.80
2019-05-26T11:57:12.156Z,67.70
2019-05-26T11:59:46.997Z,67.70
2019-05-26T12:02:16.265Z,67.70
2019-05-26T12:04:47.828Z,67.60
2019-05-26T12:07:19.348Z,67.50
2019-05-26T12:09:50.913Z,67.60
2019-05-26T12:12:22.320Z,67.60
2019-05-26T12:14:53.974Z,67.70
2019-05-26T12:17:25.461Z,67.70
2019-05-26T12:19:57.075Z,67.60
2019-05-26T12:22:28.731Z,67.70
2019-05-26T12:25:00.161Z,67.70
2019-05-26T12:27:31.602Z,67.80
2019-05-26T12:30:03.262Z,67.80
2019-05-26T12:32:34.782Z,67.90
2019-05-26T12:35:07.856Z,67.90
2019-05-26T12:37:39.316Z,67.90
2019-05-26T12:40:11.299Z,68.20
2019-05-26T12:42:42.878Z,68.20
2019-05-26T12:45:14.527Z,68.20
2019-05-26T12:47:46.077Z,68.40
2019-05-26T12:50:18.103Z,68.50
2019-05-26T12:53:00.790Z,68.60
2019-05-26T12:55:32.173Z,68.70
2019-05-26T12:58:03.642Z,68.70
2019-05-26T13:00:48.293Z,68.80
2019-05-26T13:03:08.030Z,68.80
2019-05-26T13:05:39.642Z,68.80
2019-05-26T13:08:11.219Z,68.80
2019-05-26T13:10:42.814Z,68.80
2019-05-26T13:13:14.422Z,68.70
2019-05-26T13:15:46.190Z,68.70
2019-05-26T13:18:17.678Z,68.70
2019-05-26T13:20:49.215Z,68.90
2019-05-26T13:23:20.701Z,69.10
2019-05-26T13:25:52.208Z,69.10
2019-05-26T13:28:27.028Z,69.10
2019-05-26T13:31:02.091Z,69.10
2019-05-26T13:33:36.490Z,69.20
2019-05-26T13:36:12.800Z,69.30
2019-05-26T13:38:44.479Z,69.60
2019-05-26T13:41:16.257Z,69.60
2019-05-26T13:43:47.624Z,69.60
2019-05-26T13:46:19.109Z,69.80
2019-05-26T13:48:50.839Z,69.80
2019-05-26T13:51:22.290Z,69.80
2019-05-26T13:53:54.923Z,69.90
2019-05-26T13:56:26.421Z,70.00
2019-05-26T13:58:57.924Z,70.00
2019-05-26T14:01:29.328Z,70.00
2019-05-26T14:04:00.777Z,70.00
2019-05-26T14:06:32.680Z,70.00
2019-05-26T14:09:04.169Z,70.10
2019-05-26T14:11:35.779Z,70.10
2019-05-26T14:14:07.361Z,70.20
2019-05-26T14:16:38.800Z,70.20
2019-05-26T14:19:10.426Z,70.30
2019-05-26T14:21:42.114Z,70.30
2019-05-26T14:24:16.847Z,70.40
2019-05-26T14:26:51.642Z,70.40
2019-05-26T14:29:23.278Z,70.40
2019-05-26T14:32:00.427Z,70.50
2019-05-26T14:34:31.487Z,70.60
2019-05-26T14:37:03.037Z,70.60
2019-05-26T14:39:34.659Z,70.70
2019-05-26T14:42:06.539Z,71.60
2019-05-26T14:44:38.125Z,70.80
2019-05-26T14:47:09.654Z,70.80
2019-05-26T14:49:41.151Z,71.00
2019-05-26T14:52:12.719Z,71.10
2019-05-26T14:54:44.298Z,71.10
2019-05-26T14:57:15.879Z,71.10
2019-05-26T14:59:48.490Z,71.10
2019-05-26T15:02:20.159Z,71.00
2019-05-26T15:04:51.737Z,71.00
2019-05-26T15:07:23.295Z,71.20
2019-05-26T15:09:54.890Z,71.20
2019-05-26T15:12:26.425Z,71.30
2019-05-26T15:15:01.167Z,71.30
2019-05-26T15:17:32.919Z,71.30
2019-05-26T15:20:04.388Z,71.40
2019-05-26T15:22:35.936Z,71.30
2019-05-26T15:25:08.600Z,71.30
2019-05-26T15:27:40.240Z,72.00
2019-05-26T15:30:13.522Z,71.20
2019-05-26T15:32:46.117Z,71.10
2019-05-26T15:35:17.570Z,71.20
2019-05-26T15:37:49.105Z,71.20
2019-05-26T15:40:20.652Z,71.20
2019-05-26T15:42:52.241Z,71.30
2019-05-26T15:45:24.277Z,71.60
2019-05-26T15:47:57.558Z,71.90
2019-05-26T15:50:29.209Z,72.70
2019-05-26T15:53:00.786Z,72.20
2019-05-26T15:55:32.320Z,72.50
2019-05-26T15:58:03.793Z,72.70
2019-05-26T16:00:35.305Z,73.30
2019-05-26T16:03:06.893Z,73.70
2019-05-26T16:05:38.735Z,73.70
2019-05-26T16:08:11.355Z,74.00
2019-05-26T16:10:43.339Z,74.10
2019-05-26T16:13:15.092Z,74.20
2019-05-26T16:15:46.855Z,74.20
2019-05-26T16:18:18.333Z,74.40
2019-05-26T16:21:02.280Z,74.60
2019-05-26T16:23:22.439Z,74.60
2019-05-26T16:25:53.922Z,74.90
2019-05-26T16:28:25.601Z,75.00
2019-05-26T16:30:57.205Z,74.60
2019-05-26T16:33:28.975Z,74.90
2019-05-26T16:36:00.505Z,74.90
2019-05-26T16:38:32.117Z,74.90
2019-05-26T16:41:06.590Z,75.00
2019-05-26T16:43:36.560Z,75.00
2019-05-26T16:46:08.175Z,74.90
2019-05-26T16:48:39.755Z,75.30
2019-05-26T16:51:11.235Z,75.60
2019-05-26T16:53:42.768Z,75.60
2019-05-26T16:56:14.081Z,75.50
2019-05-26T16:58:45.658Z,75.60
2019-05-26T17:01:17.212Z,75.80
2019-05-26T17:03:48.535Z,75.60
2019-05-26T17:06:20.226Z,75.60
2019-05-26T17:08:51.731Z,75.70
2019-05-26T17:11:23.237Z,75.80
2019-05-26T17:13:54.822Z,75.60
2019-05-26T17:16:26.382Z,75.40
2019-05-26T17:18:58.159Z,75.70
2019-05-26T17:21:29.582Z,75.80
2019-05-26T17:24:01.155Z,75.80
2019-05-26T17:26:32.738Z,75.80
2019-05-26T17:29:04.212Z,75.80
2019-05-26T17:31:35.991Z,76.00
2019-05-26T17:34:07.995Z,75.80
2019-05-26T17:36:39.799Z,75.60
2019-05-26T17:39:11.784Z,75.80
2019-05-26T17:41:43.297Z,75.80
2019-05-26T17:44:14.980Z,75.90
2019-05-26T17:46:46.333Z,75.90
2019-05-26T17:49:17.983Z,76.00
2019-05-26T17:51:49.603Z,76.10
2019-05-26T17:54:21.095Z,76.10
2019-05-26T17:56:52.629Z,76.10
2019-05-26T17:59:24.217Z,76.10
2019-05-26T18:01:55.744Z,76.00
2019-05-26T18:04:27.453Z,76.00
2019-05-26T18:06:58.790Z,76.20
2019-05-26T18:09:43.349Z,76.30
2019-05-26T18:12:03.171Z,76.20
2019-05-26T18:14:34.849Z,76.20
2019-05-26T18:17:06.433Z,76.30
2019-05-26T18:19:37.813Z,76.40
2019-05-26T18:22:09.274Z,76.40
2019-05-26T18:24:53.321Z,76.30
2019-05-26T18:27:13.619Z,76.50
2019-05-26T18:29:45.844Z,76.50
